createdAt,value
2023-01-08T00:01:10.125Z,0.42
2023-01-08T00:03:38.204Z,0.39
2023-01-08T00:06:07.269Z,0.30
2023-01-08T00:08:34.336Z,0.30
2023-01-08T00:11:01.347Z,0.10
2023-01-08T00:13:28.291Z,-0.11
2023-01-08T00:15:55.084Z,-0.15
2023-01-08T00:18:21.814Z,-0.18
2023-01-08T00:20:48.511Z,0.04
2023-01-08T00:23:16.612Z,-0.18
2023-01-08T00:25:43.334Z,0.05
2023-01-08T00:28:10.378Z,0.00
2023-01-08T00:30:37.995Z,0.32
2023-01-08T00:33:04.636Z,0.23
2023-01-08T00:35:31.282Z,0.01
2023-01-08T00:37:57.878Z,0.08
2023-01-08T00:40:24.561Z,0.23
2023-01-08T00:42:51.292Z,0.26
2023-01-08T00:45:17.974Z,0.13
2023-01-08T00:47:44.586Z,0.10
2023-01-08T00:50:11.717Z,0.21
2023-01-08T00:52:38.966Z,0.21
2023-01-08T00:55:06.277Z,0.04
2023-01-08T00:57:34.953Z,-0.18
2023-01-08T01:00:01.909Z,-0.37
2023-01-08T01:02:28.488Z,-0.42
2023-01-08T01:04:55.231Z,-0.54
2023-01-08T01:07:22.052Z,-0.80
2023-01-08T01:09:48.749Z,-0.71
2023-01-08T01:12:15.391Z,-0.69
2023-01-08T01:14:42.234Z,-0.58
2023-01-08T01:17:11.869Z,-0.53
2023-01-08T01:19:38.920Z,-0.54
2023-01-08T01:22:05.769Z,-0.64
2023-01-08T01:24:33.099Z,-0.36
2023-01-08T01:26:59.772Z,-0.34
2023-01-08T01:29:26.940Z,-0.35
2023-01-08T01:31:53.496Z,-0.16
2023-01-08T01:34:20.141Z,-0.09
2023-01-08T01:36:46.759Z,-0.05
2023-01-08T01:39:13.480Z,-0.16
2023-01-08T01:41:45.215Z,-0.20
2023-01-08T01:44:42.151Z,0.05
2023-01-08T01:47:30.000Z,-0.08
2023-01-08T01:50:05.442Z,0.06
2023-01-08T01:52:38.402Z,0.03
2023-01-08T01:55:07.409Z,0.05
2023-01-08T01:57:34.415Z,0.17
2023-01-08T02:00:04.567Z,0.11
2023-01-08T02:02:32.632Z,-0.07
2023-01-08T02:05:01.398Z,-0.10
2023-01-08T02:07:33.977Z,-0.12
2023-01-08T02:10:10.281Z,-0.03
2023-01-08T02:12:47.265Z,-0.06
2023-01-08T02:15:32.432Z,-0.06
2023-01-08T02:18:10.938Z,0.02
2023-01-08T02:21:03.969Z,-0.14
2023-01-08T02:23:49.644Z,-0.18
2023-01-08T02:26:25.190Z,-0.64
2023-01-08T02:28:58.832Z,-0.33
2023-01-08T02:31:28.545Z,-0.39
2023-01-08T02:33:55.200Z,-0.29
2023-01-08T02:36:40.252Z,-0.27
2023-01-08T02:39:14.672Z,-0.38
2023-01-08T02:41:52.110Z,-0.27
2023-01-08T02:44:42.257Z,-0.42
2023-01-08T02:47:15.788Z,-0.37
2023-01-08T02:49:46.013Z,-0.33
2023-01-08T02:52:15.832Z,-0.35
2023-01-08T02:54:44.553Z,-0.30
2023-01-08T02:57:15.807Z,-0.44
2023-01-08T02:59:46.305Z,-0.53
2023-01-08T03:02:13.389Z,-0.62
2023-01-08T03:04:49.598Z,-0.66
2023-01-08T03:07:16.290Z,-0.77
2023-01-08T03:09:43.195Z,-0.89
2023-01-08T03:12:23.303Z,-0.90
2023-01-08T03:15:23.077Z,-0.83
2023-01-08T03:17:53.909Z,-0.90
2023-01-08T03:20:24.984Z,-1.00
2023-01-08T03:22:55.544Z,-1.02
2023-01-08T03:25:25.176Z,-0.70
2023-01-08T03:27:57.617Z,-0.73
2023-01-08T03:30:25.473Z,-0.55
2023-01-08T03:32:55.794Z,-0.53
2023-01-08T03:35:24.909Z,-0.50
2023-01-08T03:38:07.021Z,-0.61
2023-01-08T03:40:45.459Z,-0.54
2023-01-08T03:43:12.202Z,-0.55
2023-01-08T03:45:45.311Z,-0.69
2023-01-08T03:48:12.196Z,-0.69
2023-01-08T03:50:40.347Z,-0.83
2023-01-08T03:53:08.847Z,-0.92
2023-01-08T03:55:36.052Z,-0.94
2023-01-08T03:58:02.936Z,-1.11
2023-01-08T04:00:29.629Z,-1.30
2023-01-08T04:02:56.265Z,-1.27
2023-01-08T04:05:22.938Z,-1.27
2023-01-08T04:07:49.655Z,-1.23
2023-01-08T04:10:16.498Z,-1.17
2023-01-08T04:12:43.693Z,-1.35
2023-01-08T04:15:10.821Z,-1.22
2023-01-08T04:17:37.392Z,-1.04
2023-01-08T04:20:05.690Z,-1.10
2023-01-08T04:22:32.436Z,-1.17
2023-01-08T04:24:59.099Z,-1.20
2023-01-08T04:27:25.740Z,-1.11
2023-01-08T04:29:52.390Z,-1.17
2023-01-08T04:32:19.939Z,-1.19
2023-01-08T04:34:46.586Z,-1.08
2023-01-08T04:37:13.287Z,-1.28
2023-01-08T04:39:39.930Z,-1.33
2023-01-08T04:42:06.529Z,-1.46
2023-01-08T04:44:33.089Z,-1.62
2023-01-08T04:46:59.693Z,-1.57
2023-01-08T04:49:26.370Z,-1.78
2023-01-08T04:51:52.971Z,-1.72
2023-01-08T04:54:19.675Z,-1.81
2023-01-08T04:56:46.319Z,-1.92
2023-01-08T04:59:12.990Z,-2.01
2023-01-08T05:01:39.747Z,-1.89
2023-01-08T05:04:06.504Z,-1.96
2023-01-08T05:06:33.837Z,-1.97
2023-01-08T05:09:00.664Z,-1.97
2023-01-08T05:11:30.240Z,-1.98
2023-01-08T05:13:57.194Z,-1.95
2023-01-08T05:16:24.089Z,-1.97
2023-01-08T05:18:50.809Z,-2.09
2023-01-08T05:21:18.416Z,-2.03
2023-01-08T05:23:47.907Z,-2.12
2023-01-08T05:26:16.001Z,-1.90
2023-01-08T05:28:43.193Z,-1.96
2023-01-08T05:31:11.690Z,-1.89
2023-01-08T05:33:39.110Z,-1.85
2023-01-08T05:36:08.232Z,-1.68
2023-01-08T05:38:35.120Z,-1.66
2023-01-08T05:41:01.872Z,-1.83
2023-01-08T05:43:29.723Z,-1.41
2023-01-08T05:46:02.636Z,-1.29
2023-01-08T05:48:34.071Z,-1.32
2023-01-08T05:51:01.046Z,-1.50
2023-01-08T05:53:27.734Z,-1.70
2023-01-08T05:55:59.896Z,-1.62
2023-01-08T05:58:27.276Z,-1.76
2023-01-08T06:00:54.710Z,-1.88
2023-01-08T06:03:23.237Z,-2.00
2023-01-08T06:05:49.796Z,-2.10
2023-01-08T06:08:16.549Z,-1.87
2023-01-08T06:10:43.230Z,-2.02
2023-01-08T06:13:10.570Z,-1.75
2023-01-08T06:15:40.574Z,-1.48
2023-01-08T06:18:07.432Z,-1.41
2023-01-08T06:20:34.103Z,-1.00
2023-01-08T06:23:00.800Z,-0.85
2023-01-08T06:25:28.512Z,-0.25
2023-01-08T06:27:55.361Z,0.30
2023-01-08T06:30:22.066Z,0.77
2023-01-08T06:32:48.790Z,1.08
2023-01-08T06:35:15.511Z,1.55
2023-01-08T06:37:42.327Z,1.34
2023-01-08T06:40:09.686Z,1.35
2023-01-08T06:42:36.272Z,0.99
2023-01-08T06:45:02.969Z,0.56
2023-01-08T06:47:29.656Z,0.20
2023-01-08T06:49:56.402Z,-0.22
2023-01-08T06:52:23.107Z,-0.67
2023-01-08T06:54:49.779Z,-0.82
2023-01-08T06:57:16.625Z,-0.99
2023-01-08T06:59:44.060Z,-1.11
2023-01-08T07:02:14.873Z,-1.06
2023-01-08T07:04:42.006Z,-0.89
2023-01-08T07:07:08.787Z,-0.96
2023-01-08T07:09:35.661Z,-0.81
2023-01-08T07:12:02.295Z,-0.50
2023-01-08T07:14:28.947Z,-0.33
2023-01-08T07:16:55.608Z,-0.46
2023-01-08T07:19:22.575Z,-0.84
2023-01-08T07:21:49.169Z,-0.65
2023-01-08T07:24:15.930Z,-0.49
2023-01-08T07:26:42.818Z,-0.52
2023-01-08T07:29:09.631Z,-0.58
2023-01-08T07:31:36.481Z,-0.41
2023-01-08T07:34:03.210Z,-0.33
2023-01-08T07:36:29.781Z,-0.26
2023-01-08T07:38:56.480Z,-0.40
2023-01-08T07:41:23.104Z,-0.42
2023-01-08T07:43:49.746Z,-0.21
2023-01-08T07:46:16.625Z,-0.86
2023-01-08T07:48:43.288Z,-0.56
2023-01-08T07:51:10.183Z,-0.60
2023-01-08T07:53:37.409Z,-0.63
2023-01-08T07:56:07.431Z,-0.29
2023-01-08T07:58:35.123Z,-0.29
2023-01-08T08:01:02.568Z,-0.35
2023-01-08T08:03:29.575Z,-0.28
2023-01-08T08:05:56.253Z,0.15
2023-01-08T08:08:22.968Z,0.32
2023-01-08T08:10:49.594Z,0.86
2023-01-08T08:13:16.269Z,1.03
2023-01-08T08:15:43.048Z,1.29
2023-01-08T08:18:10.244Z,1.52
2023-01-08T08:20:37.806Z,1.84
2023-01-08T08:23:08.044Z,2.07
2023-01-08T08:25:35.306Z,2.23
2023-01-08T08:28:03.070Z,2.36
2023-01-08T08:30:31.735Z,2.52
2023-01-08T08:33:01.027Z,2.48
2023-01-08T08:35:28.183Z,2.25
2023-01-08T08:37:56.040Z,2.03
2023-01-08T08:40:23.141Z,1.96
2023-01-08T08:42:54.832Z,2.04
2023-01-08T08:45:21.584Z,1.95
2023-01-08T08:47:48.194Z,2.01
2023-01-08T08:50:14.778Z,2.09
2023-01-08T08:52:41.444Z,2.39
2023-01-08T08:55:08.460Z,2.43
2023-01-08T08:57:35.079Z,2.40
2023-01-08T09:00:01.755Z,2.47
2023-01-08T09:02:28.523Z,2.63
2023-01-08T09:04:55.303Z,2.72
2023-01-08T09:07:21.976Z,2.93
2023-01-08T09:09:48.601Z,3.00
2023-01-08T09:12:15.314Z,3.30
2023-01-08T09:14:42.036Z,3.62
2023-01-08T09:17:08.718Z,3.80
2023-01-08T09:19:35.566Z,3.90
2023-01-08T09:22:03.156Z,3.94
2023-01-08T09:24:32.384Z,4.26
2023-01-08T09:26:59.644Z,4.38
2023-01-08T09:29:26.276Z,4.51
2023-01-08T09:31:53.141Z,4.55
2023-01-08T09:34:19.828Z,4.75
2023-01-08T09:36:46.618Z,4.88
2023-01-08T09:39:13.475Z,5.03
2023-01-08T09:41:44.995Z,5.31
2023-01-08T09:44:17.708Z,5.48
2023-01-08T09:46:45.308Z,5.70
2023-01-08T09:49:16.987Z,5.82
2023-01-08T09:51:43.707Z,5.82
2023-01-08T09:54:15.546Z,5.80
2023-01-08T09:56:42.682Z,5.88
2023-01-08T09:59:16.017Z,5.78
2023-01-08T10:01:44.803Z,6.07
2023-01-08T10:04:26.867Z,6.01
2023-01-08T10:07:01.495Z,5.90
2023-01-08T10:09:31.556Z,6.09
2023-01-08T10:12:01.317Z,6.27
2023-01-08T10:14:39.860Z,6.11
2023-01-08T10:17:17.616Z,6.22
2023-01-08T10:19:45.733Z,6.03
2023-01-08T10:22:16.852Z,6.05
2023-01-08T10:24:43.770Z,6.18
2023-01-08T10:27:16.396Z,6.18
2023-01-08T10:29:43.612Z,6.22
2023-01-08T10:32:28.969Z,6.28
2023-01-08T10:35:02.785Z,6.40
2023-01-08T10:37:37.553Z,6.48
2023-01-08T10:40:26.820Z,6.60
2023-01-08T10:42:55.424Z,6.52
2023-01-08T10:45:25.450Z,6.72
2023-01-08T10:47:58.230Z,6.93
2023-01-08T10:50:30.783Z,7.02
2023-01-08T10:53:03.232Z,7.18
2023-01-08T10:55:37.560Z,7.40
2023-01-08T10:58:13.746Z,7.47
2023-01-08T11:00:41.211Z,7.53
2023-01-08T11:03:18.990Z,7.73
2023-01-08T11:05:46.218Z,7.83
2023-01-08T11:08:17.886Z,8.09
2023-01-08T11:10:57.179Z,8.06
2023-01-08T11:13:24.333Z,8.16
2023-01-08T11:16:07.217Z,8.13
2023-01-08T11:18:44.758Z,7.86
2023-01-08T11:21:20.987Z,7.99
2023-01-08T11:23:48.415Z,7.53
2023-01-08T11:26:20.201Z,7.65
2023-01-08T11:28:54.425Z,8.05
2023-01-08T11:31:49.968Z,8.24
2023-01-08T11:34:38.779Z,8.07
2023-01-08T11:37:14.013Z,8.47
2023-01-08T11:39:40.951Z,8.18
2023-01-08T11:42:20.153Z,8.66
2023-01-08T11:44:55.156Z,8.91
2023-01-08T11:48:06.879Z,9.07
2023-01-08T11:51:03.337Z,8.84
2023-01-08T11:53:43.446Z,9.14
2023-01-08T11:56:34.890Z,9.54
2023-01-08T11:59:12.828Z,9.57
2023-01-08T12:01:54.757Z,9.63
2023-01-08T12:04:40.193Z,9.85
2023-01-08T12:07:37.064Z,10.09
2023-01-08T12:10:26.295Z,10.23
2023-01-08T12:13:11.526Z,10.13
2023-01-08T12:16:15.753Z,9.73
2023-01-08T12:19:08.139Z,9.61
2023-01-08T12:21:42.419Z,9.68
2023-01-08T12:24:22.642Z,9.81
2023-01-08T12:27:08.612Z,10.25
2023-01-08T12:30:06.850Z,10.64
2023-01-08T12:32:38.499Z,9.97
2023-01-08T12:35:10.844Z,9.88
2023-01-08T12:37:58.023Z,10.48
2023-01-08T12:40:34.639Z,10.73
2023-01-08T12:43:17.817Z,10.76
2023-01-08T12:45:48.251Z,10.66
2023-01-08T12:48:21.565Z,10.97
2023-01-08T12:50:57.548Z,11.17
2023-01-08T12:54:01.618Z,11.29
2023-01-08T12:56:51.336Z,11.38
2023-01-08T12:59:20.662Z,11.00
2023-01-08T13:01:53.368Z,11.04
2023-01-08T13:04:20.584Z,11.05
2023-01-08T13:07:05.080Z,10.86
2023-01-08T13:09:32.838Z,10.92
2023-01-08T13:12:00.968Z,10.91
2023-01-08T13:14:28.293Z,10.92
2023-01-08T13:17:04.920Z,10.96
2023-01-08T13:19:44.028Z,11.24
2023-01-08T13:22:25.831Z,11.34
2023-01-08T13:24:52.482Z,11.32
2023-01-08T13:27:19.055Z,11.47
2023-01-08T13:29:47.917Z,11.47
2023-01-08T13:32:47.452Z,11.54
2023-01-08T13:35:16.924Z,11.68
2023-01-08T13:37:45.443Z,11.63
2023-01-08T13:40:36.596Z,11.85
2023-01-08T13:43:13.249Z,11.71
2023-01-08T13:45:41.057Z,11.42
2023-01-08T13:48:21.632Z,11.39
2023-01-08T13:50:48.421Z,11.30
2023-01-08T13:53:15.612Z,11.15
2023-01-08T13:55:55.686Z,11.30
2023-01-08T13:58:32.423Z,11.31
2023-01-08T14:01:00.761Z,11.27
2023-01-08T14:03:37.373Z,11.20
2023-01-08T14:06:07.020Z,11.29
2023-01-08T14:08:33.962Z,11.25
2023-01-08T14:11:00.874Z,11.14
2023-01-08T14:13:30.974Z,10.94
2023-01-08T14:16:02.772Z,10.93
2023-01-08T14:18:29.597Z,10.77
2023-01-08T14:20:56.456Z,10.84
2023-01-08T14:23:37.019Z,10.77
2023-01-08T14:26:08.551Z,10.70
2023-01-08T14:28:35.676Z,10.57
2023-01-08T14:31:02.806Z,10.59
2023-01-08T14:33:36.355Z,10.52
2023-01-08T14:36:07.183Z,10.39
2023-01-08T14:38:33.851Z,10.38
2023-01-08T14:41:05.040Z,10.31
2023-01-08T14:43:41.031Z,10.34
2023-01-08T14:46:27.428Z,10.22
2023-01-08T14:48:55.905Z,10.10
2023-01-08T14:51:28.884Z,9.77
2023-01-08T14:57:35.485Z,9.14
2023-01-08T15:00:02.905Z,8.70
2023-01-08T15:06:04.827Z,8.27
2023-01-08T15:08:35.546Z,8.66
2023-01-08T15:11:09.000Z,8.36
2023-01-08T15:13:39.854Z,8.26
2023-01-08T15:16:16.768Z,8.16
2023-01-08T15:18:47.795Z,8.09
2023-01-08T15:21:20.079Z,7.97
2023-01-08T15:23:48.834Z,7.92
2023-01-08T15:26:41.164Z,7.68
2023-01-08T15:29:08.010Z,7.73
2023-01-08T15:31:40.478Z,7.73
2023-01-08T15:34:10.490Z,7.67
2023-01-08T15:36:37.327Z,7.52
2023-01-08T15:39:05.113Z,7.53
2023-01-08T15:41:56.511Z,7.48
2023-01-08T15:44:24.111Z,7.18
2023-01-08T15:46:54.280Z,7.24
2023-01-08T15:49:21.043Z,7.15
2023-01-08T15:51:49.800Z,7.09
2023-01-08T15:54:16.893Z,6.94
2023-01-08T15:56:43.722Z,6.91
2023-01-08T15:59:11.358Z,6.76
2023-01-08T16:01:38.535Z,6.72
2023-01-08T16:04:05.445Z,6.63
2023-01-08T16:06:32.163Z,6.46
2023-01-08T16:09:00.507Z,6.40
2023-01-08T16:11:27.538Z,6.23
2023-01-08T16:13:54.784Z,6.22
2023-01-08T16:16:21.620Z,6.26
2023-01-08T16:18:48.340Z,6.26
2023-01-08T16:21:15.124Z,6.05
2023-01-08T16:23:42.469Z,5.83
2023-01-08T16:26:11.733Z,6.07
2023-01-08T16:28:38.472Z,5.87
2023-01-08T16:31:05.395Z,5.80
2023-01-08T16:33:32.364Z,5.61
2023-01-08T16:36:07.686Z,5.71
2023-01-08T16:38:36.463Z,5.61
2023-01-08T16:41:04.605Z,5.56
2023-01-08T16:43:31.692Z,5.33
2023-01-08T16:46:03.363Z,5.15
2023-01-08T16:48:30.865Z,5.11
2023-01-08T16:51:05.198Z,5.13
2023-01-08T16:53:32.400Z,5.04
2023-01-08T16:56:00.107Z,4.97
2023-01-08T16:58:27.070Z,4.97
2023-01-08T17:00:53.733Z,4.87
2023-01-08T17:03:20.840Z,4.95
2023-01-08T17:05:47.805Z,4.37
2023-01-08T17:08:19.939Z,4.68
2023-01-08T17:10:47.043Z,4.75
2023-01-08T17:13:13.679Z,4.64
2023-01-08T17:15:40.745Z,4.54
2023-01-08T17:18:07.319Z,4.30
2023-01-08T17:20:33.962Z,4.13
2023-01-08T17:23:01.756Z,4.19
2023-01-08T17:25:28.486Z,4.27
2023-01-08T17:27:55.169Z,4.18
2023-01-08T17:30:27.514Z,3.98
2023-01-08T17:32:56.301Z,3.88
2023-01-08T17:35:23.049Z,3.82
2023-01-08T17:37:49.929Z,3.67
2023-01-08T17:40:16.729Z,3.53
2023-01-08T17:42:43.423Z,3.61
2023-01-08T17:45:10.648Z,3.43
2023-01-08T17:47:37.836Z,3.39
2023-01-08T17:50:06.009Z,3.59
2023-01-08T17:52:32.793Z,3.62
2023-01-08T17:54:59.543Z,3.45
2023-01-08T17:57:26.573Z,3.44
2023-01-08T17:59:53.301Z,3.42
2023-01-08T18:02:20.173Z,3.43
2023-01-08T18:04:46.849Z,3.43
2023-01-08T18:07:14.558Z,3.35
2023-01-08T18:09:41.449Z,3.51
2023-01-08T18:12:08.613Z,3.40
2023-01-08T18:14:37.636Z,3.49
2023-01-08T18:17:04.803Z,3.33
2023-01-08T18:19:31.551Z,3.52
2023-01-08T18:21:58.683Z,3.54
2023-01-08T18:24:25.444Z,3.50
2023-01-08T18:26:52.666Z,3.43
2023-01-08T18:29:19.319Z,3.22
2023-01-08T18:31:46.571Z,3.51
2023-01-08T18:34:15.157Z,3.36
2023-01-08T18:36:42.250Z,3.40
2023-01-08T18:39:09.173Z,3.38
2023-01-08T18:41:54.653Z,3.43
2023-01-08T18:44:21.361Z,3.47
2023-01-08T18:46:48.355Z,3.42
2023-01-08T18:49:15.641Z,3.42
2023-01-08T18:51:42.862Z,3.42
2023-01-08T18:54:11.278Z,3.42
2023-01-08T18:56:38.087Z,3.44
2023-01-08T18:59:06.413Z,3.51
2023-01-08T19:01:34.528Z,3.65
2023-01-08T19:04:01.369Z,3.42
2023-01-08T19:06:28.468Z,3.57
2023-01-08T19:08:57.602Z,3.36
2023-01-08T19:11:24.898Z,3.44
2023-01-08T19:13:55.622Z,3.20
2023-01-08T19:16:22.601Z,3.17
2023-01-08T19:18:50.333Z,3.13
2023-01-08T19:21:19.217Z,3.05
2023-01-08T19:23:46.986Z,2.95
2023-01-08T19:26:14.631Z,2.95
2023-01-08T19:28:42.471Z,2.92
2023-01-08T19:31:12.231Z,2.91
2023-01-08T19:33:39.339Z,3.01
2023-01-08T19:36:11.129Z,2.78
2023-01-08T19:38:38.585Z,2.83
2023-01-08T19:41:25.878Z,2.89
2023-01-08T19:43:54.564Z,2.82
2023-01-08T19:46:21.500Z,2.60
2023-01-08T19:48:48.468Z,2.64
2023-01-08T19:51:15.335Z,2.61
2023-01-08T19:53:42.053Z,2.57
2023-01-08T19:56:11.614Z,2.49
2023-01-08T19:58:38.687Z,2.52
2023-01-08T20:01:10.455Z,2.51
2023-01-08T20:03:38.147Z,2.50
2023-01-08T20:06:09.873Z,2.42
2023-01-08T20:08:37.002Z,2.49
2023-01-08T20:11:12.327Z,2.43
2023-01-08T20:13:40.184Z,2.38
2023-01-08T20:16:09.521Z,2.31
2023-01-08T20:18:36.917Z,2.13
2023-01-08T20:21:17.501Z,2.09
2023-01-08T20:23:45.394Z,1.98
2023-01-08T20:26:18.351Z,2.00
2023-01-08T20:28:46.698Z,1.50
2023-01-08T20:31:18.493Z,1.59
2023-01-08T20:33:45.956Z,1.51
2023-01-08T20:36:19.153Z,1.13
2023-01-08T20:38:46.125Z,1.24
2023-01-08T20:41:12.861Z,1.18
2023-01-08T20:43:41.058Z,0.79
2023-01-08T20:46:09.992Z,1.05
2023-01-08T20:48:42.956Z,1.01
2023-01-08T20:51:12.711Z,1.01
2023-01-08T20:53:40.080Z,1.04
2023-01-08T20:56:09.640Z,0.92
2023-01-08T20:58:38.489Z,1.13
2023-01-08T21:01:13.306Z,1.09
2023-01-08T21:03:40.784Z,1.12
2023-01-08T21:06:09.352Z,1.00
2023-01-08T21:08:36.364Z,0.99
2023-01-08T21:11:06.061Z,1.12
2023-01-08T21:13:33.692Z,1.11
2023-01-08T21:16:03.048Z,1.10
2023-01-08T21:18:30.628Z,1.19
2023-01-08T21:21:02.622Z,1.10
2023-01-08T21:23:35.151Z,1.11
2023-01-08T21:26:05.293Z,1.14
2023-01-08T21:28:32.289Z,1.08
2023-01-08T21:31:28.611Z,1.07
2023-01-08T21:33:57.412Z,1.13
2023-01-08T21:36:27.596Z,1.13
2023-01-08T21:38:56.827Z,1.19
2023-01-08T21:41:44.356Z,1.14
2023-01-08T21:44:35.939Z,1.22
2023-01-08T21:47:04.511Z,1.25
2023-01-08T21:49:31.866Z,1.20
2023-01-08T21:52:16.991Z,1.12
2023-01-08T21:54:43.775Z,1.25
2023-01-08T21:57:10.484Z,1.17
2023-01-08T21:59:37.393Z,1.05
2023-01-08T22:02:05.764Z,1.14
2023-01-08T22:04:32.673Z,1.08
2023-01-08T22:06:59.615Z,0.95
2023-01-08T22:09:26.181Z,1.04
2023-01-08T22:11:54.738Z,1.11
2023-01-08T22:14:21.564Z,1.04
2023-01-08T22:16:48.188Z,0.76
2023-01-08T22:19:14.876Z,1.05
2023-01-08T22:21:41.484Z,1.08
2023-01-08T22:24:08.176Z,0.98
2023-01-08T22:26:35.637Z,0.92
2023-01-08T22:29:03.901Z,0.71
2023-01-08T22:31:30.586Z,0.66
2023-01-08T22:33:57.530Z,0.79
2023-01-08T22:36:24.709Z,0.78
2023-01-08T22:38:51.730Z,0.64
2023-01-08T22:41:24.022Z,0.60
2023-01-08T22:43:55.917Z,0.48
2023-01-08T22:46:23.874Z,0.37
2023-01-08T22:48:50.898Z,0.35
2023-01-08T22:51:19.763Z,0.36
2023-01-08T22:53:46.573Z,0.32
2023-01-08T22:56:14.267Z,0.27
2023-01-08T22:58:42.408Z,0.36
2023-01-08T23:01:20.079Z,0.39
2023-01-08T23:03:54.928Z,0.30
2023-01-08T23:06:22.859Z,0.30
2023-01-08T23:08:50.089Z,0.24
2023-01-08T23:11:19.075Z,0.12
2023-01-08T23:13:46.097Z,0.13
2023-01-08T23:16:16.528Z,0.11
2023-01-08T23:18:43.744Z,0.07
2023-01-08T23:21:15.591Z,0.13
2023-01-08T23:23:42.888Z,0.12
2023-01-08T23:26:17.016Z,-0.13
2023-01-08T23:28:43.762Z,0.00
2023-01-08T23:31:13.006Z,-0.07
2023-01-08T23:33:39.949Z,0.12
2023-01-08T23:36:18.210Z,-0.08
2023-01-08T23:38:46.422Z,-0.14
2023-01-08T23:41:13.796Z,-0.06
2023-01-08T23:43:40.905Z,-0.17
2023-01-08T23:46:07.913Z,-0.04
2023-01-08T23:48:34.586Z,-0.18
2023-01-08T23:51:01.584Z,-0.14
2023-01-08T23:53:28.847Z,-0.09
2023-01-08T23:55:55.465Z,-0.08
2023-01-08T23:58:22.337Z,-0.09
